createdAt,value
2019-02-12T00:00:17.381Z,1.77
2019-02-12T00:02:45.647Z,1.77
2019-02-12T00:05:12.660Z,2.57
2019-02-12T00:07:39.112Z,1.87
2019-02-12T00:10:05.645Z,1.67
2019-02-12T00:12:32.248Z,1.37
2019-02-12T00:14:58.866Z,2.83
2019-02-12T00:17:25.238Z,2.20
2019-02-12T00:19:51.572Z,1.80
2019-02-12T00:22:18.127Z,1.43
2019-02-12T00:24:44.728Z,2.33
2019-02-12T00:27:11.302Z,1.87
2019-02-12T00:29:37.634Z,1.87
2019-02-12T00:32:03.980Z,2.03
2019-02-12T00:34:30.308Z,2.40
2019-02-12T00:36:56.916Z,1.87
2019-02-12T00:39:23.233Z,2.10
2019-02-12T00:41:49.596Z,1.70
2019-02-12T00:44:16.915Z,1.77
2019-02-12T00:46:43.288Z,2.67
2019-02-12T00:49:09.835Z,1.87
2019-02-12T00:51:36.160Z,1.60
2019-02-12T00:54:02.764Z,1.83
2019-02-12T00:56:29.359Z,3.00
2019-02-12T00:58:55.686Z,1.40
2019-02-12T01:01:22.039Z,2.47
2019-02-12T01:03:48.361Z,1.33
2019-02-12T01:06:14.680Z,1.90
2019-02-12T01:08:42.011Z,2.60
2019-02-12T01:11:08.560Z,1.70
2019-02-12T01:13:36.166Z,1.83
2019-02-12T01:16:02.566Z,1.47
2019-02-12T01:18:29.180Z,1.87
2019-02-12T01:20:55.753Z,1.43
2019-02-12T01:23:22.308Z,1.43
2019-02-12T01:25:48.654Z,1.87
2019-02-12T01:28:14.999Z,1.60
2019-02-12T01:30:41.358Z,2.27
2019-02-12T01:33:07.651Z,2.30
2019-02-12T01:35:34.270Z,1.70
2019-02-12T01:38:00.563Z,1.57
2019-02-12T01:40:26.930Z,1.50
2019-02-12T01:42:53.257Z,2.07
2019-02-12T01:45:19.607Z,2.80
2019-02-12T01:47:46.264Z,1.20
2019-02-12T01:50:12.734Z,1.80
2019-02-12T01:52:39.064Z,1.80
2019-02-12T01:55:05.458Z,2.50
2019-02-12T01:57:32.059Z,1.43
2019-02-12T01:59:58.353Z,2.07
2019-02-12T02:02:24.705Z,2.43
2019-02-12T02:04:51.255Z,1.53
2019-02-12T02:07:17.841Z,2.30
2019-02-12T02:09:44.162Z,1.80
2019-02-12T02:12:10.618Z,1.33
2019-02-12T02:14:37.224Z,1.50
2019-02-12T02:17:03.523Z,1.17
2019-02-12T02:19:29.862Z,1.30
2019-02-12T02:21:56.478Z,1.43
2019-02-12T02:24:22.819Z,1.57
2019-02-12T02:26:49.431Z,1.43
2019-02-12T02:29:16.082Z,1.40
2019-02-12T02:31:42.677Z,1.20
2019-02-12T02:34:09.032Z,1.93
2019-02-12T02:36:35.358Z,1.60
2019-02-12T02:39:01.793Z,1.70
2019-02-12T02:41:30.043Z,2.53
2019-02-12T02:43:56.357Z,1.17
2019-02-12T02:46:22.713Z,2.30
2019-02-12T02:48:49.278Z,1.77
2019-02-12T02:51:15.635Z,1.03
2019-02-12T02:53:41.957Z,1.20
2019-02-12T02:56:08.607Z,1.10
2019-02-12T02:58:34.922Z,1.93
2019-02-12T03:01:01.228Z,1.77
2019-02-12T03:03:27.784Z,1.33
2019-02-12T03:05:54.378Z,1.90
2019-02-12T03:08:20.712Z,1.80
2019-02-12T03:10:47.046Z,1.50
2019-02-12T03:13:13.370Z,1.83
2019-02-12T03:15:39.693Z,1.87
2019-02-12T03:18:06.338Z,2.10
2019-02-12T03:20:32.939Z,1.67
2019-02-12T03:22:59.586Z,1.37
2019-02-12T03:25:25.937Z,2.47
2019-02-12T03:27:52.252Z,1.77
2019-02-12T03:30:18.595Z,2.80
2019-02-12T03:32:45.191Z,1.53
2019-02-12T03:35:11.612Z,1.60
2019-02-12T03:37:38.961Z,1.67
2019-02-12T03:40:09.241Z,1.70
2019-02-12T03:42:35.887Z,1.70
2019-02-12T03:45:05.582Z,1.40
2019-02-12T03:47:32.239Z,1.70
2019-02-12T03:49:58.812Z,1.37
2019-02-12T03:52:25.205Z,1.30
2019-02-12T03:54:51.775Z,1.80
2019-02-12T03:57:18.245Z,1.13
2019-02-12T03:59:44.569Z,1.63
2019-02-12T04:02:10.928Z,1.60
2019-02-12T04:04:37.246Z,1.60
2019-02-12T04:07:03.867Z,1.60
2019-02-12T04:09:30.479Z,1.40
2019-02-12T04:11:56.774Z,2.03
2019-02-12T04:14:23.109Z,1.30
2019-02-12T04:16:49.434Z,1.73
2019-02-12T04:19:15.871Z,1.40
2019-02-12T04:21:42.237Z,1.47
2019-02-12T04:24:08.566Z,1.33
2019-02-12T04:26:34.864Z,1.40
2019-02-12T04:29:01.291Z,1.33
2019-02-12T04:31:27.708Z,1.77
2019-02-12T04:33:54.038Z,1.30
2019-02-12T04:36:20.353Z,1.47
2019-02-12T04:38:46.665Z,1.57
2019-02-12T04:41:12.986Z,1.70
2019-02-12T04:43:39.335Z,1.50
2019-02-12T04:46:05.659Z,1.30
2019-02-12T04:48:32.296Z,1.30
2019-02-12T04:50:58.922Z,1.30
2019-02-12T04:53:25.557Z,1.30
2019-02-12T04:55:51.957Z,1.47
2019-02-12T04:58:18.292Z,1.20
2019-02-12T05:00:44.659Z,1.50
2019-02-12T05:03:11.006Z,1.40
2019-02-12T05:05:37.617Z,0.90
2019-02-12T05:08:04.215Z,1.00
2019-02-12T05:10:39.427Z,1.13
2019-02-12T05:13:05.826Z,0.93
2019-02-12T05:15:32.169Z,0.83
2019-02-12T05:17:58.523Z,1.10
2019-02-12T05:20:24.862Z,1.33
2019-02-12T05:22:51.485Z,0.80
2019-02-12T05:25:17.873Z,1.57
2019-02-12T05:27:44.358Z,0.83
2019-02-12T05:30:12.790Z,0.90
2019-02-12T05:32:39.125Z,1.27
2019-02-12T05:35:05.933Z,0.70
2019-02-12T05:37:32.540Z,0.80
2019-02-12T05:39:59.961Z,0.80
2019-02-12T05:42:26.572Z,1.00
2019-02-12T05:44:52.928Z,0.90
2019-02-12T05:47:19.272Z,1.53
2019-02-12T05:49:45.620Z,1.10
2019-02-12T05:52:11.944Z,0.67
2019-02-12T05:54:38.302Z,1.37
2019-02-12T05:57:04.885Z,0.80
2019-02-12T05:59:31.282Z,0.90
2019-02-12T06:01:57.642Z,1.70
2019-02-12T06:04:23.987Z,0.90
2019-02-12T06:06:50.376Z,2.10
2019-02-12T06:09:17.069Z,0.80
2019-02-12T06:11:43.534Z,0.90
2019-02-12T06:14:09.900Z,1.03
2019-02-12T06:16:36.237Z,1.00
2019-02-12T06:19:02.605Z,0.80
2019-02-12T06:21:28.908Z,1.10
2019-02-12T06:23:55.298Z,1.87
2019-02-12T06:26:22.595Z,1.37
2019-02-12T06:28:48.953Z,1.00
2019-02-12T06:31:15.300Z,0.90
2019-02-12T06:33:41.925Z,0.80
2019-02-12T06:36:08.241Z,0.67
2019-02-12T06:38:34.879Z,1.20
2019-02-12T06:41:01.532Z,0.93
2019-02-12T06:43:27.904Z,0.70
2019-02-12T06:45:54.250Z,0.60
2019-02-12T06:48:20.572Z,1.10
2019-02-12T06:50:47.143Z,0.60
2019-02-12T06:53:13.717Z,0.93
2019-02-12T06:55:40.274Z,2.10
2019-02-12T06:58:06.870Z,1.30
2019-02-12T07:00:33.208Z,1.37
2019-02-12T07:03:14.716Z,1.37
2019-02-12T07:06:04.608Z,1.10
2019-02-12T07:08:59.970Z,1.10
2019-02-12T07:11:41.318Z,1.37
2019-02-12T07:14:13.414Z,1.80
2019-02-12T07:17:12.249Z,1.10
2019-02-12T07:20:02.112Z,0.90
2019-02-12T07:22:56.363Z,1.20
2019-02-12T07:25:49.391Z,2.33
2019-02-12T07:28:59.867Z,0.70
2019-02-12T07:31:44.191Z,1.37
2019-02-12T07:34:38.909Z,1.20
2019-02-12T07:37:13.987Z,1.40
2019-02-12T07:40:21.316Z,1.37
2019-02-12T07:43:02.405Z,0.83
2019-02-12T07:45:37.202Z,1.10
2019-02-12T07:48:36.746Z,0.90
2019-02-12T07:51:34.587Z,1.00
2019-02-12T07:54:12.291Z,1.00
2019-02-12T07:56:59.744Z,1.30
2019-02-12T07:59:46.677Z,1.53
2019-02-12T08:02:30.795Z,1.20
2019-02-12T08:05:27.257Z,1.30
2019-02-12T08:08:31.371Z,0.83
2019-02-12T08:11:06.165Z,1.57
2019-02-12T08:14:15.830Z,1.10
2019-02-12T08:17:05.740Z,2.30
2019-02-12T08:19:55.066Z,1.20
2019-02-12T08:22:32.373Z,1.30
2019-02-12T08:25:34.391Z,1.90
2019-02-12T08:28:24.390Z,1.10
2019-02-12T08:31:05.019Z,1.00
2019-02-12T08:33:37.033Z,1.20
2019-02-12T08:36:20.225Z,1.50
2019-02-12T08:39:04.050Z,1.40
2019-02-12T08:41:40.178Z,1.20
2019-02-12T08:44:38.660Z,1.93
2019-02-12T08:47:37.216Z,2.10
2019-02-12T08:50:20.087Z,1.70
2019-02-12T08:53:32.989Z,3.03
2019-02-12T08:56:33.465Z,1.87
2019-02-12T08:59:13.898Z,2.00
2019-02-12T09:01:48.688Z,2.20
2019-02-12T09:04:38.832Z,1.90
2019-02-12T09:07:28.813Z,2.00
2019-02-12T09:10:25.296Z,2.10
2019-02-12T09:13:00.614Z,1.73
2019-02-12T09:15:44.552Z,2.23
2019-02-12T09:18:36.039Z,1.93
2019-02-12T09:21:13.959Z,2.00
2019-02-12T09:24:10.221Z,2.43
2019-02-12T09:26:44.830Z,2.00
2019-02-12T09:29:37.397Z,3.20
2019-02-12T09:32:38.074Z,2.70
2019-02-12T09:35:36.965Z,2.67
2019-02-12T09:38:43.545Z,2.30
2019-02-12T09:41:31.409Z,1.80
2019-02-12T09:44:18.313Z,2.43
2019-02-12T09:47:41.098Z,2.20
2019-02-12T09:50:35.575Z,1.97
2019-02-12T09:53:35.090Z,3.00
2019-02-12T09:56:26.412Z,2.17
2019-02-12T09:59:24.258Z,1.80
2019-02-12T10:02:23.504Z,2.30
2019-02-12T10:05:31.300Z,1.73
2019-02-12T10:08:34.311Z,2.10
2019-02-12T10:11:30.099Z,2.00
2019-02-12T10:14:20.427Z,1.30
2019-02-12T10:17:14.099Z,1.40
2019-02-12T10:19:46.137Z,1.70
2019-02-12T10:22:39.132Z,1.30
2019-02-12T10:25:14.151Z,2.03
2019-02-12T10:28:08.628Z,2.10
2019-02-12T10:30:49.266Z,2.43
2019-02-12T10:33:16.065Z,2.40
2019-02-12T10:35:42.438Z,2.83
2019-02-12T10:38:08.770Z,2.70
2019-02-12T10:40:35.115Z,2.37
2019-02-12T10:43:01.726Z,3.30
2019-02-12T10:45:28.311Z,3.13
2019-02-12T10:47:54.824Z,2.70
2019-02-12T10:50:21.454Z,2.10
2019-02-12T10:52:48.036Z,3.13
2019-02-12T10:55:14.488Z,3.00
2019-02-12T10:57:41.085Z,2.50
2019-02-12T11:00:13.900Z,2.00
2019-02-12T11:02:40.441Z,2.63
2019-02-12T11:05:07.178Z,3.73
2019-02-12T11:07:33.773Z,2.83
2019-02-12T11:10:00.120Z,2.33
2019-02-12T11:12:26.532Z,2.10
2019-02-12T11:14:52.844Z,2.23
2019-02-12T11:17:19.440Z,2.20
2019-02-12T11:19:46.023Z,2.03
2019-02-12T11:22:12.330Z,1.70
2019-02-12T11:24:39.823Z,2.10
2019-02-12T11:27:06.357Z,1.80
2019-02-12T11:29:32.985Z,2.40
2019-02-12T11:31:59.544Z,1.80
2019-02-12T11:34:26.167Z,2.23
2019-02-12T11:36:52.535Z,1.73
2019-02-12T11:39:18.932Z,1.77
2019-02-12T11:41:45.221Z,1.90
2019-02-12T11:44:11.541Z,1.60
2019-02-12T11:46:38.172Z,1.77
2019-02-12T11:49:04.503Z,1.70
2019-02-12T11:51:31.100Z,2.17
2019-02-12T11:53:57.417Z,2.27
2019-02-12T11:56:23.925Z,2.40
2019-02-12T11:58:50.503Z,2.30
2019-02-12T12:01:18.131Z,1.00
2019-02-12T12:03:44.741Z,1.10
2019-02-12T12:06:11.310Z,1.30
2019-02-12T12:08:37.664Z,1.63
2019-02-12T12:11:04.238Z,1.17
2019-02-12T12:13:31.846Z,1.30
2019-02-12T12:15:58.550Z,1.30
2019-02-12T12:18:26.150Z,1.57
2019-02-12T12:20:52.717Z,1.00
2019-02-12T12:23:19.014Z,1.40
2019-02-12T12:25:45.625Z,1.33
2019-02-12T12:28:11.988Z,1.00
2019-02-12T12:30:39.418Z,1.53
2019-02-12T12:33:05.938Z,1.07
2019-02-12T12:35:32.330Z,1.70
2019-02-12T12:37:58.927Z,1.23
2019-02-12T12:40:25.321Z,1.60
2019-02-12T12:42:51.640Z,1.33
2019-02-12T12:45:18.242Z,2.00
2019-02-12T12:47:44.603Z,2.83
2019-02-12T12:50:12.100Z,1.60
2019-02-12T12:52:38.495Z,1.73
2019-02-12T12:55:07.379Z,1.43
2019-02-12T12:57:41.359Z,2.20
2019-02-12T13:00:06.476Z,1.70
2019-02-12T13:02:34.623Z,1.40
2019-02-12T13:05:02.688Z,2.67
2019-02-12T13:07:29.258Z,1.60
2019-02-12T13:09:55.861Z,1.47
2019-02-12T13:12:22.433Z,2.50
2019-02-12T13:14:49.072Z,2.17
2019-02-12T13:17:15.450Z,2.57
2019-02-12T13:19:41.773Z,2.30
2019-02-12T13:22:08.406Z,2.30
2019-02-12T13:24:34.997Z,2.00
2019-02-12T13:27:01.370Z,1.77
2019-02-12T13:29:27.691Z,2.00
2019-02-12T13:31:54.283Z,1.90
2019-02-12T13:34:20.632Z,1.57
2019-02-12T13:36:47.146Z,1.17
2019-02-12T13:39:13.473Z,1.57
2019-02-12T13:41:40.090Z,1.93
2019-02-12T13:44:06.676Z,2.07
2019-02-12T13:46:33.032Z,1.60
2019-02-12T13:48:59.417Z,2.00
2019-02-12T13:51:25.799Z,1.53
2019-02-12T13:53:52.208Z,2.10
2019-02-12T13:56:18.660Z,1.83
2019-02-12T13:58:45.338Z,2.33
2019-02-12T14:01:11.719Z,2.80
2019-02-12T14:03:38.249Z,1.70
2019-02-12T14:06:04.628Z,1.40
2019-02-12T14:08:31.296Z,1.93
2019-02-12T14:10:57.607Z,1.90
2019-02-12T14:13:24.253Z,1.50
2019-02-12T14:15:50.876Z,1.57
2019-02-12T14:18:17.518Z,1.33
2019-02-12T14:20:44.078Z,3.07
2019-02-12T14:23:10.680Z,2.30
2019-02-12T14:25:37.315Z,2.03
2019-02-12T14:28:04.009Z,2.47
2019-02-12T14:30:30.366Z,2.03
2019-02-12T14:32:57.032Z,1.50
2019-02-12T14:35:23.371Z,1.87
2019-02-12T14:37:49.969Z,1.37
2019-02-12T14:40:16.573Z,1.30
2019-02-12T14:42:43.201Z,1.70
2019-02-12T14:45:17.225Z,1.83
2019-02-12T14:47:43.874Z,1.40
2019-02-12T14:50:19.222Z,1.43
2019-02-12T14:52:45.989Z,1.80
2019-02-12T14:55:12.707Z,1.60
2019-02-12T14:57:39.064Z,3.50
2019-02-12T15:00:12.505Z,2.13
2019-02-12T15:02:39.070Z,1.50
2019-02-12T15:05:06.530Z,2.20
2019-02-12T15:07:32.853Z,1.80
2019-02-12T15:09:59.464Z,1.63
2019-02-12T15:12:25.778Z,2.50
2019-02-12T15:14:52.127Z,1.40
2019-02-12T15:17:18.469Z,2.40
2019-02-12T15:19:45.094Z,2.20
2019-02-12T15:22:11.438Z,2.10
2019-02-12T15:24:38.030Z,2.23
2019-02-12T15:27:04.564Z,2.17
2019-02-12T15:29:31.023Z,2.13
2019-02-12T15:31:57.405Z,3.10
2019-02-12T15:34:24.108Z,3.33
2019-02-12T15:36:50.484Z,2.00
2019-02-12T15:39:17.068Z,2.80
2019-02-12T15:41:43.413Z,3.40
2019-02-12T15:44:09.783Z,2.23
2019-02-12T15:46:36.372Z,2.10
2019-02-12T15:49:03.052Z,2.50
2019-02-12T15:51:29.414Z,2.17
2019-02-12T15:53:55.756Z,1.57
2019-02-12T15:56:22.349Z,1.53
2019-02-12T15:58:49.681Z,2.20
2019-02-12T16:01:16.528Z,2.30
2019-02-12T16:03:43.166Z,2.03
2019-02-12T16:06:09.491Z,1.70
2019-02-12T16:08:35.850Z,2.33
2019-02-12T16:11:02.182Z,1.23
2019-02-12T16:13:29.587Z,1.90
2019-02-12T16:15:56.176Z,1.40
2019-02-12T16:18:23.003Z,1.27
2019-02-12T16:20:50.876Z,2.20
2019-02-12T16:23:17.382Z,1.70
2019-02-12T16:25:44.036Z,1.30
2019-02-12T16:28:10.619Z,2.10
2019-02-12T16:30:37.233Z,2.83
2019-02-12T16:33:03.819Z,2.90
2019-02-12T16:35:30.433Z,2.43
2019-02-12T16:37:56.769Z,2.43
2019-02-12T16:40:23.449Z,2.27
2019-02-12T16:42:50.112Z,2.57
2019-02-12T16:45:28.294Z,2.50
2019-02-12T16:47:54.640Z,3.13
2019-02-12T16:50:21.231Z,2.40
2019-02-12T16:52:47.825Z,3.00
2019-02-12T16:55:14.554Z,2.40
2019-02-12T16:57:41.183Z,3.13
2019-02-12T17:00:14.183Z,2.40
2019-02-12T17:02:40.757Z,2.40
2019-02-12T17:05:10.433Z,1.93
2019-02-12T17:07:36.892Z,3.60
2019-02-12T17:10:07.617Z,2.57
2019-02-12T17:12:34.015Z,2.07
2019-02-12T17:15:00.686Z,2.03
2019-02-12T17:17:27.356Z,2.73
2019-02-12T17:19:53.975Z,2.17
2019-02-12T17:22:20.450Z,4.73
2019-02-12T17:24:47.022Z,2.50
2019-02-12T17:27:13.720Z,3.00
2019-02-12T17:29:40.440Z,2.47
2019-02-12T17:32:07.107Z,2.80
2019-02-12T17:34:34.823Z,2.50
2019-02-12T17:37:01.183Z,2.03
2019-02-12T17:39:27.534Z,2.87
2019-02-12T17:41:53.901Z,3.17
2019-02-12T17:44:20.484Z,3.33
2019-02-12T17:46:47.158Z,3.87
2019-02-12T17:49:13.808Z,2.70
2019-02-12T17:51:40.543Z,2.37
2019-02-12T17:54:06.912Z,2.33
2019-02-12T17:56:33.576Z,2.90
2019-02-12T17:59:00.221Z,2.80
2019-02-12T18:01:26.850Z,2.97
2019-02-12T18:03:53.506Z,2.10
2019-02-12T18:06:19.875Z,2.63
2019-02-12T18:08:46.528Z,2.93
2019-02-12T18:11:12.987Z,2.83
2019-02-12T18:13:40.411Z,2.73
2019-02-12T18:16:06.883Z,2.53
2019-02-12T18:18:33.226Z,3.43
2019-02-12T18:20:59.618Z,2.87
2019-02-12T18:23:25.967Z,2.90
2019-02-12T18:25:52.602Z,2.27
2019-02-12T18:28:19.164Z,2.33
2019-02-12T18:30:45.786Z,2.93
2019-02-12T18:33:12.430Z,4.10
2019-02-12T18:35:40.372Z,2.87
2019-02-12T18:38:08.392Z,4.37
2019-02-12T18:40:34.709Z,4.13
2019-02-12T18:43:01.303Z,4.43
2019-02-12T18:45:27.896Z,3.37
2019-02-12T18:47:54.484Z,3.40
2019-02-12T18:50:20.856Z,3.10
2019-02-12T18:52:47.301Z,3.53
2019-02-12T18:55:15.507Z,3.63
2019-02-12T18:57:42.528Z,2.53
2019-02-12T19:00:13.065Z,3.50
2019-02-12T19:02:40.186Z,2.07
2019-02-12T19:05:09.092Z,2.93
2019-02-12T19:07:36.043Z,2.43
2019-02-12T19:10:07.589Z,2.10
2019-02-12T19:12:34.565Z,3.00
2019-02-12T19:15:01.046Z,2.83
2019-02-12T19:17:27.631Z,2.40
2019-02-12T19:19:54.244Z,2.50
2019-02-12T19:22:20.917Z,2.77
2019-02-12T19:24:47.388Z,2.23
2019-02-12T19:27:13.718Z,2.23
2019-02-12T19:29:40.129Z,2.00
2019-02-12T19:32:06.467Z,2.50
2019-02-12T19:34:32.852Z,2.60
2019-02-12T19:36:59.213Z,2.17
2019-02-12T19:39:25.681Z,1.93
2019-02-12T19:41:52.392Z,1.80
2019-02-12T19:44:19.022Z,2.30
2019-02-12T19:46:45.471Z,2.40
2019-02-12T19:49:12.042Z,2.30
2019-02-12T19:51:38.387Z,1.97
2019-02-12T19:54:04.884Z,1.87
2019-02-12T19:56:31.571Z,2.43
2019-02-12T19:58:58.015Z,3.40
2019-02-12T20:01:24.475Z,2.17
2019-02-12T20:03:51.156Z,3.00
2019-02-12T20:06:17.814Z,3.67
2019-02-12T20:08:44.208Z,2.10
2019-02-12T20:11:10.612Z,2.60
2019-02-12T20:13:37.281Z,2.67
2019-02-12T20:16:03.748Z,2.20
2019-02-12T20:18:31.407Z,3.03
2019-02-12T20:20:57.832Z,2.70
2019-02-12T20:23:24.701Z,2.63
2019-02-12T20:25:52.166Z,2.70
2019-02-12T20:28:18.954Z,3.07
2019-02-12T20:30:45.708Z,2.47
2019-02-12T20:33:12.121Z,2.33
2019-02-12T20:35:38.726Z,2.53
2019-02-12T20:38:05.149Z,3.27
2019-02-12T20:40:31.881Z,2.80
2019-02-12T20:42:58.344Z,3.17
2019-02-12T20:45:24.728Z,2.43
2019-02-12T20:47:51.270Z,2.27
2019-02-12T20:50:19.910Z,2.40
2019-02-12T20:52:46.590Z,2.80
2019-02-12T20:55:13.032Z,2.67
2019-02-12T20:57:39.378Z,3.37
2019-02-12T21:00:12.578Z,2.80
2019-02-12T21:02:39.009Z,2.60
2019-02-12T21:05:09.417Z,2.60
2019-02-12T21:07:36.064Z,2.90
2019-02-12T21:10:08.711Z,2.80
2019-02-12T21:12:35.412Z,3.37
2019-02-12T21:15:04.821Z,2.70
2019-02-12T21:17:31.554Z,1.77
2019-02-12T21:19:58.957Z,2.93
2019-02-12T21:22:25.812Z,2.10
2019-02-12T21:24:52.607Z,2.80
2019-02-12T21:27:23.593Z,3.50
2019-02-12T21:29:47.987Z,2.50
2019-02-12T21:32:14.640Z,3.50
2019-02-12T21:34:41.480Z,2.20
2019-02-12T21:37:07.779Z,3.17
2019-02-12T21:39:35.016Z,2.53
2019-02-12T21:42:01.325Z,2.70
2019-02-12T21:44:30.773Z,3.70
2019-02-12T21:46:57.991Z,2.60
2019-02-12T21:49:24.582Z,2.70
2019-02-12T21:51:51.161Z,2.50
2019-02-12T21:54:18.268Z,2.63
2019-02-12T21:56:46.555Z,2.77
2019-02-12T21:59:12.962Z,2.63
2019-02-12T22:01:39.838Z,2.50
2019-02-12T22:04:06.481Z,2.20
2019-02-12T22:06:33.150Z,2.47
2019-02-12T22:08:59.785Z,2.50
2019-02-12T22:11:29.835Z,3.13
2019-02-12T22:13:56.445Z,2.60
2019-02-12T22:16:23.904Z,2.20
2019-02-12T22:18:50.238Z,2.37
2019-02-12T22:21:17.049Z,2.13
2019-02-12T22:23:43.377Z,2.20
2019-02-12T22:26:09.765Z,2.47
2019-02-12T22:28:36.063Z,2.27
2019-02-12T22:31:02.663Z,1.93
2019-02-12T22:33:29.047Z,3.20
2019-02-12T22:35:55.618Z,2.53
2019-02-12T22:38:21.911Z,2.60
2019-02-12T22:40:48.221Z,2.30
2019-02-12T22:43:14.797Z,2.23
2019-02-12T22:45:41.162Z,2.50
2019-02-12T22:48:07.467Z,2.90
2019-02-12T22:50:34.037Z,3.60
2019-02-12T22:53:00.344Z,2.87
2019-02-12T22:55:26.921Z,2.10
2019-02-12T22:57:53.320Z,3.43
2019-02-12T23:00:27.298Z,3.20
2019-02-12T23:02:55.605Z,3.07
2019-02-12T23:05:22.278Z,2.90
2019-02-12T23:07:48.735Z,3.57
2019-02-12T23:10:15.382Z,4.70
2019-02-12T23:12:41.934Z,3.23
2019-02-12T23:15:08.354Z,3.00
2019-02-12T23:17:34.655Z,3.70
2019-02-12T23:20:01.284Z,4.63
2019-02-12T23:22:29.089Z,3.70
2019-02-12T23:24:55.668Z,4.50
2019-02-12T23:27:22.239Z,4.17
2019-02-12T23:29:48.804Z,4.90
2019-02-12T23:32:15.405Z,6.13
2019-02-12T23:34:42.291Z,5.00
2019-02-12T23:37:08.873Z,5.37
2019-02-12T23:39:35.456Z,7.10
2019-02-12T23:42:01.820Z,5.90
2019-02-12T23:44:28.154Z,6.20
2019-02-12T23:46:54.710Z,5.47
2019-02-12T23:49:21.269Z,6.50
2019-02-12T23:51:47.592Z,6.60
2019-02-12T23:54:14.176Z,6.23
2019-02-12T23:56:40.518Z,5.73
2019-02-12T23:59:07.182Z,7.20
